Time;durP1;ratioP1;P1;durP2;ratioP2;P2;SDS_P1;SDS_P2;PMS_P1;PMS_P2;Temp;Humidity;BMP_temperature;BMP_pressure;BME280_temperature;BME280_humidity;BME280_pressure;Samples;Min_cycle;Max_cycle;Signal;HPM_P1;HPM_P2
2022/04/15 00:01:38;;;;;;;38.25;27.77;;;12.80;99.90;;;;;;5082475;28;20466;-66
2022/04/15 00:04:06;;;;;;;40.97;29.73;;;12.80;99.90;;;;;;5090439;28;20063;-65
2022/04/15 00:06:34;;;;;;;41.10;29.38;;;12.80;99.90;;;;;;5089893;28;20062;-66
2022/04/15 00:09:03;;;;;;;42.17;29.40;;;12.80;99.90;;;;;;5090282;28;20122;-66
2022/04/15 00:11:31;;;;;;;39.08;28.88;;;12.90;99.90;;;;;;5093721;28;20032;-66
2022/04/15 00:14:00;;;;;;;41.83;28.77;;;12.80;99.90;;;;;;5089556;28;20190;-64
2022/04/15 00:16:27;;;;;;;40.78;28.75;;;12.90;99.90;;;;;;5105248;28;20077;-65
2022/04/15 00:18:54;;;;;;;36.08;26.13;;;12.90;99.90;;;;;;5091305;28;20040;-65
2022/04/15 00:21:22;;;;;;;38.47;28.35;;;12.90;99.90;;;;;;5097724;28;20977;-64
2022/04/15 00:23:54;;;;;;;42.15;28.80;;;12.80;99.90;;;;;;5097723;28;20119;-65
2022/04/15 00:26:21;;;;;;;40.30;28.60;;;12.80;99.90;;;;;;5109108;28;20122;-65
2022/04/15 00:28:50;;;;;;;40.47;27.30;;;12.90;99.90;;;;;;5093663;28;20147;-65
2022/04/15 00:31:18;;;;;;;37.25;26.63;;;12.80;99.90;;;;;;5088037;28;20454;-65
2022/04/15 00:33:45;;;;;;;39.30;27.48;;;12.80;99.90;;;;;;5103561;28;20546;-65
2022/04/15 00:36:13;;;;;;;38.92;27.30;;;12.90;99.90;;;;;;5094385;28;20044;-65
2022/04/15 00:38:40;;;;;;;39.45;27.65;;;12.90;99.90;;;;;;5093996;28;20443;-65
2022/04/15 00:41:14;;;;;;;37.03;26.20;;;12.90;99.90;;;;;;5100932;28;20060;-65
2022/04/15 00:43:41;;;;;;;35.15;25.70;;;13.00;99.90;;;;;;5099163;28;20072;-65
2022/04/15 00:46:09;;;;;;;35.40;26.30;;;13.00;99.90;;;;;;5091066;28;20094;-64
2022/04/15 00:48:37;;;;;;;37.35;25.60;;;13.00;99.90;;;;;;5105043;28;20130;-65
2022/04/15 00:51:05;;;;;;;34.70;24.45;;;13.00;99.90;;;;;;5098992;28;20052;-65
2022/04/15 00:53:35;;;;;;;35.72;24.88;;;13.10;99.90;;;;;;5088982;28;20126;-65
2022/04/15 00:56:05;;;;;;;33.42;23.95;;;13.10;99.90;;;;;;5096499;28;20035;-64
2022/04/15 00:58:35;;;;;;;39.45;26.00;;;13.10;99.90;;;;;;5103166;28;20114;-64
2022/04/15 01:01:03;;;;;;;36.95;24.55;;;13.20;99.90;;;;;;5080906;28;20052;-64
2022/04/15 01:03:32;;;;;;;38.03;25.33;;;13.10;99.90;;;;;;5089466;28;20109;-65
2022/04/15 01:06:04;;;;;;;41.78;26.48;;;13.10;99.90;;;;;;5088961;28;20471;-66
2022/04/15 01:08:35;;;;;;;37.33;26.35;;;13.10;99.90;;;;;;5094951;28;20122;-65
2022/04/15 01:11:03;;;;;;;41.97;28.80;;;13.10;99.90;;;;;;5102105;28;20427;-65
2022/04/15 01:13:34;;;;;;;40.53;25.90;;;13.00;99.90;;;;;;5087761;28;20185;-65
2022/04/15 01:16:03;;;;;;;40.92;27.60;;;13.00;99.90;;;;;;5095232;28;20349;-64
2022/04/15 01:18:31;;;;;;;42.60;29.23;;;13.00;99.90;;;;;;5094460;28;20036;-65
2022/04/15 01:20:59;;;;;;;41.08;26.48;;;12.90;99.90;;;;;;5107481;28;20048;-65
2022/04/15 01:23:27;;;;;;;46.00;28.13;;;12.90;99.90;;;;;;5106514;28;20063;-64
2022/04/15 01:25:54;;;;;;;44.03;29.30;;;13.00;99.90;;;;;;5107805;28;20043;-64
2022/04/15 01:28:21;;;;;;;42.92;30.38;;;12.90;99.90;;;;;;5105176;28;20040;-64
2022/04/15 01:30:49;;;;;;;43.20;30.38;;;12.90;99.90;;;;;;5098179;28;20051;-65
2022/04/15 01:33:17;;;;;;;48.58;30.48;;;12.90;99.90;;;;;;5100613;28;20042;-65
2022/04/15 01:35:49;;;;;;;;;;;12.80;99.90;;;;;;5108512;28;20092;-64
2022/04/15 01:38:17;;;;;;;43.80;29.15;;;12.80;99.90;;;;;;5094130;28;19924;-65
2022/04/15 01:40:45;;;;;;;48.13;31.33;;;12.70;99.90;;;;;;5104887;27;20043;-64
2022/04/15 01:43:13;;;;;;;43.58;29.42;;;12.60;99.90;;;;;;5101274;28;20053;-65
2022/04/15 01:45:40;;;;;;;43.90;29.15;;;12.70;99.90;;;;;;5098728;28;20142;-65
2022/04/15 01:48:08;;;;;;;44.70;30.67;;;12.70;99.90;;;;;;5098899;28;20180;-64
2022/04/15 01:50:35;;;;;;;46.78;30.27;;;12.70;99.90;;;;;;5088200;28;20035;-64
2022/04/15 01:53:03;;;;;;;42.53;28.65;;;12.60;99.90;;;;;;5089331;28;20048;-65
2022/04/15 01:55:31;;;;;;;43.78;30.30;;;12.60;99.90;;;;;;5092035;28;20044;-65
2022/04/15 01:57:58;;;;;;;49.00;31.30;;;12.60;99.90;;;;;;5094736;28;20159;-65
2022/04/15 02:00:26;;;;;;;43.90;29.27;;;12.60;99.90;;;;;;5087274;28;20048;-64
2022/04/15 02:02:53;;;;;;;44.50;28.27;;;12.60;99.90;;;;;;5085149;28;20120;-64
2022/04/15 02:05:20;;;;;;;42.67;29.67;;;12.60;99.90;;;;;;5097792;28;20093;-65
2022/04/15 02:07:48;;;;;;;45.17;28.92;;;12.60;99.90;;;;;;5092732;28;20040;-65
2022/04/15 02:10:15;;;;;;;40.60;28.25;;;12.70;99.90;;;;;;5095859;28;20421;-65
2022/04/15 02:12:42;;;;;;;42.92;28.88;;;12.70;99.90;;;;;;5097914;28;20059;-65
2022/04/15 02:15:10;;;;;;;42.90;27.23;;;12.60;99.90;;;;;;5093662;28;20044;-65
2022/04/15 02:17:37;;;;;;;41.08;27.60;;;12.70;99.90;;;;;;5095550;28;20048;-65
2022/04/15 02:20:06;;;;;;;41.03;27.25;;;12.70;99.90;;;;;;5092198;28;20093;-64
2022/04/15 02:22:33;;;;;;;43.00;28.98;;;12.70;99.90;;;;;;5102595;28;20059;-66
2022/04/15 02:25:01;;;;;;;41.17;26.27;;;12.70;99.90;;;;;;5105657;28;20046;-65
2022/04/15 02:27:28;;;;;;;42.33;29.20;;;12.60;99.90;;;;;;5097906;28;20897;-65
2022/04/15 02:29:55;;;;;;;43.95;29.48;;;12.60;99.90;;;;;;5105103;28;20468;-65
2022/04/15 02:32:23;;;;;;;39.88;26.80;;;12.70;99.90;;;;;;5078928;28;20094;-65
2022/04/15 02:34:51;;;;;;;40.25;27.77;;;12.70;99.90;;;;;;5101350;28;20051;-65
2022/04/15 02:37:18;;;;;;;43.28;30.40;;;12.70;99.90;;;;;;5094399;28;20043;-65
2022/04/15 02:39:45;;;;;;;42.28;28.58;;;12.70;99.90;;;;;;5107080;28;20388;-65
2022/04/15 02:42:14;;;;;;;37.10;25.85;;;12.70;99.90;;;;;;5095728;28;20043;-65
2022/04/15 02:44:41;;;;;;;41.67;26.92;;;12.70;99.90;;;;;;5106053;28;20146;-65
2022/04/15 02:47:09;;;;;;;34.42;25.27;;;12.70;99.90;;;;;;5089269;28;20124;-65
2022/04/15 02:49:36;;;;;;;44.30;28.92;;;12.80;99.90;;;;;;5097207;28;20035;-65
2022/04/15 02:52:04;;;;;;;46.47;27.83;;;12.70;99.90;;;;;;5104323;28;20035;-65
2022/04/15 02:54:31;;;;;;;41.28;25.33;;;12.70;99.90;;;;;;5086917;28;20062;-65
2022/04/15 02:56:59;;;;;;;38.78;25.45;;;12.60;99.90;;;;;;5105787;28;20495;-65
2022/04/15 02:59:26;;;;;;;34.70;23.67;;;12.50;99.90;;;;;;5108582;28;20055;-64
2022/04/15 03:01:53;;;;;;;41.20;26.45;;;12.50;99.90;;;;;;5099973;28;20042;-65
2022/04/15 03:04:21;;;;;;;41.53;26.85;;;12.50;99.90;;;;;;5111651;28;20040;-65
2022/04/15 03:06:48;;;;;;;42.60;26.55;;;12.40;99.90;;;;;;5109848;28;20043;-65
2022/04/15 03:09:16;;;;;;;40.00;27.30;;;12.30;99.90;;;;;;5098266;28;20093;-65
2022/04/15 03:11:43;;;;;;;37.78;25.05;;;12.30;99.90;;;;;;5087218;28;20048;-65
2022/04/15 03:14:10;;;;;;;42.88;26.88;;;12.30;99.90;;;;;;5091183;28;20044;-66
2022/04/15 03:16:37;;;;;;;46.78;28.15;;;12.30;99.90;;;;;;5098097;28;20444;-67
2022/04/15 03:19:05;;;;;;;43.40;26.55;;;12.20;99.90;;;;;;5099795;28;20463;-65
2022/04/15 03:21:32;;;;;;;46.25;27.02;;;12.20;99.90;;;;;;5100758;28;20056;-65
2022/04/15 03:24:00;;;;;;;40.17;24.92;;;12.20;99.90;;;;;;5092770;28;20053;-65
2022/04/15 03:26:27;;;;;;;44.40;25.33;;;12.10;99.90;;;;;;5092541;28;20213;-65
2022/04/15 03:28:54;;;;;;;66.97;28.33;;;12.10;99.90;;;;;;5092636;28;20509;-65
2022/04/15 03:31:22;;;;;;;41.20;24.73;;;12.00;99.90;;;;;;5089086;28;20055;-65
2022/04/15 03:33:49;;;;;;;39.72;24.85;;;12.00;99.90;;;;;;5082063;28;20495;-65
2022/04/15 03:36:16;;;;;;;40.00;24.95;;;12.00;99.90;;;;;;5089649;28;20402;-65
2022/04/15 03:38:44;;;;;;;58.83;27.13;;;11.90;99.90;;;;;;5094408;28;20035;-65
2022/04/15 03:41:11;;;;;;;48.80;25.25;;;11.90;99.90;;;;;;5089487;28;20355;-65
2022/04/15 03:43:40;;;;;;;48.08;24.67;;;11.90;99.90;;;;;;5093569;28;20047;-65
2022/04/15 03:46:08;;;;;;;37.58;22.90;;;11.90;99.90;;;;;;5092960;28;20123;-67
2022/04/15 03:48:35;;;;;;;44.75;24.05;;;11.80;99.90;;;;;;5093780;28;20135;-65
2022/04/15 03:51:02;;;;;;;40.35;24.58;;;11.90;99.90;;;;;;5091363;28;20085;-66
2022/04/15 03:53:30;;;;;;;41.35;25.35;;;11.80;99.90;;;;;;5092931;28;20044;-65
2022/04/15 03:55:57;;;;;;;39.38;23.77;;;11.80;99.90;;;;;;5094292;28;20135;-65
2022/04/15 03:58:25;;;;;;;40.47;24.92;;;11.90;99.90;;;;;;5086937;28;20072;-65
2022/04/15 04:00:53;;;;;;;38.17;24.52;;;11.90;99.90;;;;;;5090129;28;20123;-64
2022/04/15 04:03:20;;;;;;;47.22;25.90;;;11.90;99.90;;;;;;5090480;28;20132;-65
2022/04/15 04:05:47;;;;;;;37.00;23.70;;;11.80;99.90;;;;;;5090375;28;20489;-65
2022/04/15 04:08:14;;;;;;;34.28;21.65;;;11.90;99.90;;;;;;5104873;28;20415;-65
2022/04/15 04:10:42;;;;;;;39.33;24.13;;;11.80;99.90;;;;;;5092370;28;20060;-65
2022/04/15 04:13:09;;;;;;;34.92;21.15;;;11.70;99.90;;;;;;5104145;28;20112;-65
2022/04/15 04:15:36;;;;;;;37.53;23.60;;;11.70;99.90;;;;;;5093241;28;20062;-65
2022/04/15 04:18:04;;;;;;;34.88;22.60;;;11.70;99.90;;;;;;5108942;28;20044;-65
2022/04/15 04:20:32;;;;;;;33.92;23.38;;;11.80;99.90;;;;;;5097336;28;20040;-65
2022/04/15 04:22:59;;;;;;;35.40;22.88;;;11.90;99.90;;;;;;5106135;28;20054;-65
2022/04/15 04:25:27;;;;;;;32.58;21.85;;;11.90;99.90;;;;;;5104567;27;20051;-65
2022/04/15 04:27:54;;;;;;;34.75;22.17;;;11.90;99.90;;;;;;5103464;28;20547;-65
2022/04/15 04:30:22;;;;;;;32.30;21.33;;;11.90;99.90;;;;;;5098860;28;20110;-65
2022/04/15 04:32:49;;;;;;;37.20;22.70;;;11.80;99.90;;;;;;5098174;28;20101;-65
2022/04/15 04:35:19;;;;;;;42.28;23.58;;;11.80;99.90;;;;;;5077505;28;20043;-65
2022/04/15 04:37:47;;;;;;;34.72;22.48;;;11.80;99.90;;;;;;5090030;28;20127;-65
2022/04/15 04:40:15;;;;;;;39.30;23.60;;;11.80;99.90;;;;;;5091695;28;20075;-65
2022/04/15 04:42:44;;;;;;;38.83;22.63;;;11.90;99.90;;;;;;5089662;28;20454;-65
2022/04/15 04:45:12;;;;;;;34.20;19.85;;;11.90;99.90;;;;;;5091426;28;20059;-65
2022/04/15 04:47:42;;;;;;;29.90;19.17;;;11.90;99.90;;;;;;5078229;28;20134;-65
2022/04/15 04:50:09;;;;;;;44.35;23.17;;;11.80;99.90;;;;;;5091248;28;20444;-65
2022/04/15 04:52:38;;;;;;;36.65;21.23;;;11.70;99.90;;;;;;5082896;28;20510;-65
2022/04/15 04:55:06;;;;;;;31.60;20.40;;;11.70;99.90;;;;;;5082938;28;20062;-65
2022/04/15 04:57:34;;;;;;;37.75;22.38;;;11.70;99.90;;;;;;5085440;28;20492;-65
2022/04/15 05:00:02;;;;;;;39.10;22.70;;;11.70;99.90;;;;;;5088057;28;20050;-64
2022/04/15 05:02:30;;;;;;;35.67;22.60;;;11.70;99.90;;;;;;5082651;28;20414;-65
2022/04/15 05:04:57;;;;;;;29.70;18.02;;;11.80;99.90;;;;;;5089257;28;20063;-65
2022/04/15 05:07:25;;;;;;;26.85;15.27;;;11.90;99.90;;;;;;5084680;28;20112;-64
2022/04/15 05:09:53;;;;;;;29.52;17.58;;;11.90;99.90;;;;;;5088576;28;20044;-64
2022/04/15 05:12:20;;;;;;;37.20;19.15;;;11.90;99.90;;;;;;5088481;28;20151;-65
2022/04/15 05:14:47;;;;;;;30.15;17.92;;;11.80;99.90;;;;;;5086363;28;20041;-65
2022/04/15 05:17:14;;;;;;;28.08;18.15;;;11.80;99.90;;;;;;5085424;28;20427;-65
2022/04/15 05:19:45;;;;;;;27.88;18.58;;;11.90;99.90;;;;;;5086655;28;20663;-65
2022/04/15 05:22:13;;;;;;;26.42;18.10;;;11.90;99.90;;;;;;5093820;28;20058;-65
2022/04/15 05:24:41;;;;;;;28.17;17.63;;;12.00;99.90;;;;;;5101537;28;20048;-65
2022/04/15 05:27:08;;;;;;;29.55;18.55;;;12.10;99.90;;;;;;5093783;28;20512;-65
2022/04/15 05:29:36;;;;;;;26.42;17.10;;;12.20;99.90;;;;;;5099004;28;20051;-66
2022/04/15 05:32:04;;;;;;;25.55;15.77;;;12.30;99.90;;;;;;5087866;28;20043;-65
2022/04/15 05:34:31;;;;;;;24.92;16.77;;;12.40;99.90;;;;;;5097933;28;20169;-65
2022/04/15 05:36:58;;;;;;;25.55;16.73;;;12.60;99.90;;;;;;5092142;28;20054;-65
2022/04/15 05:39:26;;;;;;;25.48;16.55;;;12.60;99.90;;;;;;5105485;28;20134;-65
2022/04/15 05:41:53;;;;;;;26.45;17.40;;;12.60;99.90;;;;;;5089041;28;20052;-65
2022/04/15 05:44:20;;;;;;;29.35;17.77;;;12.60;99.90;;;;;;5095476;28;20713;-65
2022/04/15 05:46:47;;;;;;;23.42;15.68;;;12.50;99.90;;;;;;5088554;28;20048;-65
2022/04/15 05:49:16;;;;;;;27.33;17.42;;;12.60;99.90;;;;;;5096177;28;20046;-65
2022/04/15 05:51:45;;;;;;;26.17;16.60;;;12.60;99.90;;;;;;5088442;28;20040;-65
2022/04/15 05:54:13;;;;;;;27.98;16.42;;;12.60;99.90;;;;;;5093120;28;20124;-65
2022/04/15 05:56:42;;;;;;;27.58;18.27;;;12.40;99.90;;;;;;5094391;28;20577;-66
2022/04/15 05:59:09;;;;;;;29.90;19.10;;;12.40;99.90;;;;;;5087204;27;20055;-65
2022/04/15 06:01:36;;;;;;;23.98;16.92;;;12.50;99.90;;;;;;5082137;28;20116;-65
2022/04/15 06:04:04;;;;;;;26.67;16.27;;;12.50;99.90;;;;;;5080047;28;20681;-65
2022/04/15 06:06:31;;;;;;;20.67;14.07;;;12.60;99.90;;;;;;5087631;28;20042;-65
2022/04/15 06:08:59;;;;;;;21.58;14.93;;;12.70;99.90;;;;;;5086396;28;20040;-65
2022/04/15 06:11:26;;;;;;;20.65;13.38;;;12.60;99.90;;;;;;5087084;28;20329;-65
2022/04/15 06:13:53;;;;;;;21.70;15.40;;;12.60;99.90;;;;;;5083310;28;20114;-65
2022/04/15 06:16:20;;;;;;;18.15;13.05;;;12.60;99.90;;;;;;5096900;28;20044;-65
2022/04/15 06:18:49;;;;;;;23.23;16.25;;;12.70;99.90;;;;;;5079913;28;20578;-65
2022/04/15 06:21:36;;;;;;;23.27;15.82;;;12.60;99.90;;;;;;5087361;28;20500;-65
2022/04/15 06:24:04;;;;;;;25.50;16.42;;;12.70;99.90;;;;;;5077402;28;20351;-67
2022/04/15 06:26:31;;;;;;;24.63;16.45;;;12.80;99.90;;;;;;5088910;28;20341;-65
2022/04/15 06:28:59;;;;;;;24.80;16.23;;;12.90;99.90;;;;;;5088948;28;20044;-65
2022/04/15 06:31:26;;;;;;;22.77;15.90;;;13.00;99.90;;;;;;5086483;28;20055;-65
2022/04/15 06:33:54;;;;;;;24.10;17.35;;;13.20;99.90;;;;;;5090702;28;20032;-65
2022/04/15 06:36:21;;;;;;;24.67;16.95;;;13.10;99.90;;;;;;5091292;28;20123;-65
2022/04/15 06:38:49;;;;;;;23.00;16.33;;;13.10;99.90;;;;;;5093991;28;20097;-65
2022/04/15 06:41:17;;;;;;;24.52;16.27;;;13.50;99.90;;;;;;5092614;28;20093;-65
2022/04/15 06:43:44;;;;;;;23.98;16.17;;;13.80;99.90;;;;;;5093287;28;20715;-64
2022/04/15 06:46:11;;;;;;;22.02;16.42;;;13.70;99.90;;;;;;5086137;28;20146;-65
2022/04/15 06:48:39;;;;;;;21.48;15.48;;;13.90;99.90;;;;;;5088126;28;20044;-65
2022/04/15 06:51:07;;;;;;;22.80;15.10;;;13.90;99.90;;;;;;5091167;28;20042;-65
2022/04/15 06:53:34;;;;;;;23.05;15.55;;;13.90;99.90;;;;;;5083710;28;20040;-65
2022/04/15 06:56:02;;;;;;;21.45;14.77;;;14.00;99.90;;;;;;5102422;28;20122;-65
2022/04/15 06:58:29;;;;;;;23.13;16.83;;;14.10;99.90;;;;;;5086273;28;20065;-65
2022/04/15 07:00:56;;;;;;;21.38;16.30;;;14.20;99.90;;;;;;5089493;28;20071;-65
2022/04/15 07:03:25;;;;;;;25.90;18.08;;;14.20;99.90;;;;;;5091670;28;20055;-65
2022/04/15 07:05:52;;;;;;;25.65;17.08;;;13.90;99.90;;;;;;5091263;28;20052;-65
2022/04/15 07:08:20;;;;;;;25.70;17.73;;;14.00;99.90;;;;;;5089492;28;20143;-66
2022/04/15 07:10:47;;;;;;;28.40;18.08;;;14.20;99.90;;;;;;5095195;28;20623;-65
2022/04/15 07:13:15;;;;;;;25.38;17.63;;;14.50;99.90;;;;;;5094973;28;20074;-65
2022/04/15 07:15:42;;;;;;;25.58;16.45;;;14.50;99.90;;;;;;5099032;28;20139;-66
2022/04/15 07:18:09;;;;;;;24.52;16.85;;;14.40;99.90;;;;;;5098498;28;20066;-66
2022/04/15 07:20:37;;;;;;;23.60;17.17;;;14.40;99.90;;;;;;5097639;28;20048;-65
2022/04/15 07:23:04;;;;;;;26.67;18.48;;;14.50;99.90;;;;;;5102647;28;20422;-65
2022/04/15 07:25:33;;;;;;;25.77;16.65;;;14.20;99.90;;;;;;5099929;28;20054;-66
2022/04/15 07:28:01;;;;;;;25.33;18.88;;;14.30;99.90;;;;;;5091905;28;20097;-66
2022/04/15 07:30:29;;;;;;;30.08;20.23;;;14.30;99.90;;;;;;5085795;28;20386;-66
2022/04/15 07:32:57;;;;;;;27.33;16.90;;;14.30;99.90;;;;;;5083929;28;20131;-66
2022/04/15 07:35:24;;;;;;;22.65;16.38;;;14.40;99.90;;;;;;5096317;28;20054;-65
2022/04/15 07:37:51;;;;;;;24.77;16.33;;;14.50;99.90;;;;;;5093057;28;20048;-66
2022/04/15 07:40:18;;;;;;;27.33;19.58;;;14.50;99.90;;;;;;5094427;28;20722;-67
2022/04/15 07:42:46;;;;;;;26.70;18.67;;;14.30;99.90;;;;;;5101955;28;20044;-66
2022/04/15 07:45:14;;;;;;;27.98;17.50;;;14.30;99.90;;;;;;5091045;28;20047;-65
2022/04/15 07:47:42;;;;;;;26.98;18.10;;;14.30;99.90;;;;;;5092037;28;20132;-66
2022/04/15 07:50:23;;;;;;;25.17;18.08;;;14.50;99.90;;;;;;5090297;28;20043;-66
2022/04/15 07:52:58;;;;;;;26.48;18.02;;;14.60;99.90;;;;;;5090119;28;20078;-66
2022/04/15 07:55:26;;;;;;;25.60;18.27;;;14.70;99.90;;;;;;5094587;28;20433;-65
2022/04/15 07:57:54;;;;;;;28.58;19.45;;;14.70;99.90;;;;;;5088723;28;20089;-66
2022/04/15 08:00:22;;;;;;;25.25;17.92;;;14.70;99.90;;;;;;5093269;28;20050;-66
2022/04/15 08:02:50;;;;;;;27.13;18.75;;;14.70;99.90;;;;;;5089178;28;20051;-66
2022/04/15 08:05:17;;;;;;;32.45;20.05;;;14.90;99.90;;;;;;5091529;28;20371;-65
2022/04/15 08:07:45;;;;;;;24.58;18.13;;;14.70;99.90;;;;;;5091536;28;20036;-65
2022/04/15 08:10:13;;;;;;;30.05;19.35;;;14.70;99.90;;;;;;5089862;28;20066;-66
2022/04/15 08:12:40;;;;;;;29.58;19.67;;;14.70;99.90;;;;;;5092153;28;20043;-65
2022/04/15 08:15:08;;;;;;;29.80;19.98;;;14.70;99.90;;;;;;5092507;28;20044;-66
2022/04/15 08:17:35;;;;;;;26.33;18.80;;;14.80;99.90;;;;;;5092347;28;20036;-65
2022/04/15 08:20:04;;;;;;;28.20;19.80;;;14.90;99.90;;;;;;5095553;28;20144;-65
2022/04/15 08:22:37;;;;;;;25.90;17.88;;;15.00;99.90;;;;;;5098084;28;20040;-65
2022/04/15 08:25:05;;;;;;;24.77;18.30;;;15.00;99.90;;;;;;5092998;28;20070;-66
2022/04/15 08:27:33;;;;;;;26.67;18.08;;;15.00;99.90;;;;;;5093358;28;20102;-66
2022/04/15 08:30:01;;;;;;;27.33;18.95;;;15.00;99.90;;;;;;5088643;28;20047;-65
2022/04/15 08:32:33;;;;;;;27.05;17.90;;;15.20;99.90;;;;;;5088401;28;20093;-66
2022/04/15 08:35:11;;;;;;;26.23;17.52;;;15.50;99.90;;;;;;5104723;28;20103;-65
2022/04/15 08:37:39;;;;;;;24.27;16.23;;;15.70;99.90;;;;;;5108256;28;20126;-65
2022/04/15 08:40:08;;;;;;;25.50;16.48;;;15.50;99.90;;;;;;5105643;28;20036;-65
2022/04/15 08:42:35;;;;;;;22.48;16.48;;;15.70;99.90;;;;;;5107017;28;20088;-66
2022/04/15 08:45:06;;;;;;;23.63;16.80;;;15.60;99.90;;;;;;5094870;27;20094;-65
2022/04/15 08:47:35;;;;;;;24.63;17.08;;;15.60;99.90;;;;;;5096522;28;20043;-66
2022/04/15 08:50:10;;;;;;;23.48;16.83;;;15.40;99.90;;;;;;5091013;28;20479;-66
2022/04/15 08:52:37;;;;;;;23.45;17.52;;;15.30;99.90;;;;;;5093879;28;20414;-66
2022/04/15 08:55:05;;;;;;;26.90;16.67;;;15.30;99.90;;;;;;5106180;28;20459;-66
2022/04/15 08:57:32;;;;;;;25.88;17.02;;;15.30;99.90;;;;;;5091053;28;20074;-65
2022/04/15 09:00:00;;;;;;;23.77;16.48;;;15.40;99.90;;;;;;5079671;28;20522;-67
2022/04/15 09:02:37;;;;;;;22.83;16.55;;;15.50;99.90;;;;;;5078648;28;20130;-65
2022/04/15 09:05:13;;;;;;;21.77;15.75;;;15.40;99.90;;;;;;5086913;28;20541;-66
2022/04/15 09:07:40;;;;;;;21.95;15.75;;;15.50;99.90;;;;;;5091447;28;20068;-66
2022/04/15 09:10:10;;;;;;;21.67;15.85;;;15.60;99.90;;;;;;5089958;28;20554;-65
2022/04/15 09:12:42;;;;;;;21.42;16.27;;;15.80;99.90;;;;;;5086736;28;20044;-65
2022/04/15 09:15:13;;;;;;;21.35;15.98;;;16.00;99.90;;;;;;5092937;28;20043;-65
2022/04/15 09:17:47;;;;;;;21.27;15.93;;;15.90;99.90;;;;;;5105345;28;20122;-65
2022/04/15 09:20:16;;;;;;;23.42;16.23;;;15.80;99.90;;;;;;5094506;28;20195;-65
2022/04/15 09:22:47;;;;;;;18.38;14.52;;;15.80;99.90;;;;;;5083525;28;20573;-65
2022/04/15 09:25:16;;;;;;;21.80;15.80;;;15.90;99.90;;;;;;5095031;28;20050;-66
2022/04/15 09:27:44;;;;;;;23.95;16.30;;;15.90;99.90;;;;;;5100559;28;20116;-66
2022/04/15 09:30:14;;;;;;;20.42;15.10;;;15.90;99.90;;;;;;5095314;28;20037;-65
2022/04/15 09:32:42;;;;;;;19.83;13.48;;;15.80;99.90;;;;;;5084332;28;20259;-65
2022/04/15 09:35:16;;;;;;;19.90;14.23;;;16.00;99.90;;;;;;5098693;28;20048;-64
2022/04/15 09:37:45;;;;;;;17.20;11.90;;;16.20;99.90;;;;;;5074016;28;20044;-66
2022/04/15 09:40:15;;;;;;;19.05;12.48;;;16.20;99.90;;;;;;5087817;28;20124;-66
2022/04/15 09:42:53;;;;;;;17.73;12.13;;;16.40;99.90;;;;;;5080871;28;20043;-65
2022/04/15 09:45:25;;;;;;;20.10;13.32;;;16.50;99.90;;;;;;5102447;28;20052;-65
2022/04/15 09:47:56;;;;;;;18.90;12.85;;;16.60;99.90;;;;;;5092774;28;20052;-65
2022/04/15 09:50:41;;;;;;;18.92;12.82;;;16.70;99.90;;;;;;5090962;28;20375;-66
2022/04/15 09:53:17;;;;;;;18.63;10.60;;;17.00;99.90;;;;;;5090179;28;20043;-66
2022/04/15 09:55:46;;;;;;;14.38;10.23;;;17.50;99.90;;;;;;5084947;28;20039;-65
2022/04/15 09:58:19;;;;;;;14.65;10.57;;;17.60;99.90;;;;;;5088069;28;20219;-66
2022/04/15 10:00:48;;;;;;;;;;;17.60;99.90;;;;;;5081709;28;20046;-66
2022/04/15 10:03:23;;;;;;;15.93;11.98;;;17.50;99.90;;;;;;5082812;28;19988;-65
2022/04/15 10:05:54;;;;;;;16.38;11.82;;;17.60;99.90;;;;;;5085518;28;20148;-65
2022/04/15 10:08:23;;;;;;;17.53;11.80;;;17.70;99.90;;;;;;5105215;28;20051;-65
2022/04/15 10:10:51;;;;;;;16.63;11.73;;;17.80;99.90;;;;;;5093458;28;20045;-66
2022/04/15 10:13:27;;;;;;;15.70;11.88;;;18.00;99.90;;;;;;5081962;28;20089;-65
2022/04/15 10:15:56;;;;;;;18.20;12.95;;;18.40;99.90;;;;;;5070510;28;20532;-65
2022/04/15 10:18:25;;;;;;;14.18;11.35;;;18.70;99.90;;;;;;5101753;28;20046;-66
2022/04/15 10:20:53;;;;;;;17.40;13.05;;;19.00;99.90;;;;;;5101239;28;20083;-65
2022/04/15 10:23:22;;;;;;;15.85;12.20;;;19.30;99.90;;;;;;5087392;28;20478;-65
2022/04/15 10:25:51;;;;;;;16.75;11.38;;;19.50;99.90;;;;;;5098353;28;20119;-66
2022/04/15 10:28:36;;;;;;;16.05;11.85;;;19.60;99.90;;;;;;5102091;28;20414;-65
2022/04/15 10:31:12;;;;;;;16.60;11.02;;;19.60;99.90;;;;;;5082238;28;20044;-65
2022/04/15 10:33:40;;;;;;;17.92;11.13;;;19.50;99.90;;;;;;5077825;28;20073;-65
2022/04/15 10:36:16;;;;;;;14.68;11.25;;;19.50;99.90;;;;;;5103204;28;20047;-66
2022/04/15 10:39:02;;;;;;;17.48;11.98;;;18.90;99.90;;;;;;5098849;28;20135;-65
2022/04/15 10:41:53;;;;;;;15.00;11.23;;;18.50;99.90;;;;;;5091688;28;20603;-65
2022/04/15 10:44:27;;;;;;;17.27;11.25;;;18.10;99.90;;;;;;5093142;28;20117;-65
2022/04/15 10:47:04;;;;;;;15.55;10.95;;;18.20;99.90;;;;;;5094814;28;20950;-66
2022/04/15 10:49:34;;;;;;;14.90;10.48;;;18.60;99.90;;;;;;5087248;28;20482;-65
2022/04/15 10:52:17;;;;;;;14.77;9.80;;;19.00;99.90;;;;;;5089444;28;20044;-66
2022/04/15 10:54:48;;;;;;;14.45;10.55;;;19.50;99.90;;;;;;5104712;28;20391;-65
2022/04/15 10:57:17;;;;;;;14.98;10.25;;;19.80;99.90;;;;;;5087279;28;20195;-65
2022/04/15 11:02:48;;;;;;;15.73;12.05;;;19.90;99.90;;;;;;5088408;28;20126;-65
2022/04/15 11:05:43;;;;;;;14.38;11.38;;;20.20;99.90;;;;;;5083038;28;20140;-65
2022/04/15 11:08:25;;;;;;;15.85;11.25;;;19.90;99.90;;;;;;5111787;28;20049;-66
2022/04/15 11:10:52;;;;;;;13.50;9.48;;;19.80;99.90;;;;;;5084244;28;20518;-66
2022/04/15 11:13:43;;;;;;;16.38;10.27;;;20.60;99.90;;;;;;5093091;28;20680;-66
2022/04/15 11:16:18;;;;;;;13.35;8.90;;;20.60;99.90;;;;;;5092897;28;20414;-65
2022/04/15 11:19:01;;;;;;;13.40;9.02;;;20.60;99.90;;;;;;5102949;28;20043;-66
2022/04/15 11:21:33;;;;;;;9.63;7.85;;;20.80;99.90;;;;;;5086287;28;20161;-66
2022/04/15 11:24:08;;;;;;;14.30;9.35;;;21.30;99.90;;;;;;5082072;28;20047;-66
2022/04/15 11:26:42;;;;;;;14.98;9.10;;;21.60;99.90;;;;;;5092948;28;20492;-65
2022/04/15 11:29:11;;;;;;;11.98;9.23;;;21.60;99.90;;;;;;5084709;28;20040;-64
2022/04/15 11:31:40;;;;;;;12.98;8.55;;;21.50;99.90;;;;;;5075229;28;20139;-65
2022/04/15 11:34:13;;;;;;;11.48;8.75;;;21.80;99.90;;;;;;5103290;28;20085;-65
2022/04/15 11:36:44;;;;;;;12.40;8.25;;;21.40;99.90;;;;;;5080450;27;20054;-65
2022/04/15 11:39:14;;;;;;;12.73;8.13;;;20.50;99.90;;;;;;5078235;28;20036;-65
2022/04/15 11:41:57;;;;;;;11.80;8.32;;;20.40;99.90;;;;;;5091576;28;20455;-66
2022/04/15 11:44:31;;;;;;;10.65;5.75;;;20.80;99.90;;;;;;5079804;28;20048;-65
2022/04/15 11:49:51;;;;;;;8.43;5.53;;;20.60;99.90;;;;;;5091134;28;20537;-65
2022/04/15 11:52:24;;;;;;;10.20;6.05;;;19.70;99.90;;;;;;5092422;28;20076;-66
2022/04/15 11:54:51;;;;;;;7.05;5.72;;;19.90;99.90;;;;;;5086339;28;20461;-66
2022/04/15 11:57:19;;;;;;;9.32;6.18;;;20.20;99.90;;;;;;5088015;28;20385;-67
2022/04/15 11:59:48;;;;;;;9.05;5.25;;;20.80;99.90;;;;;;5089982;28;20123;-66
2022/04/15 12:02:20;;;;;;;7.40;5.07;;;21.40;99.90;;;;;;5090146;28;20048;-65
2022/04/15 12:04:56;;;;;;;6.43;4.25;;;21.60;99.90;;;;;;5089693;28;20048;-65
2022/04/15 12:07:24;;;;;;;5.22;2.92;;;21.90;99.90;;;;;;5090781;28;20194;-66
2022/04/15 12:09:54;;;;;;;6.15;3.40;;;22.00;99.90;;;;;;5090167;28;20063;-66
2022/04/15 12:12:24;;;;;;;4.57;2.90;;;21.20;99.90;;;;;;5087334;28;20482;-65
2022/04/15 12:14:53;;;;;;;6.07;2.38;;;21.00;99.90;;;;;;5081064;28;20126;-65
2022/04/15 12:17:22;;;;;;;5.63;2.10;;;21.90;99.90;;;;;;5089032;28;20052;-65
2022/04/15 12:19:49;;;;;;;5.88;1.95;;;22.40;99.90;;;;;;5089252;28;20562;-66
2022/04/15 12:22:18;;;;;;;5.35;1.52;;;22.30;99.90;;;;;;5089786;28;20086;-66
2022/04/15 12:24:45;;;;;;;3.22;1.52;;;21.60;99.90;;;;;;5089659;28;20067;-66
2022/04/15 12:27:18;;;;;;;5.55;1.83;;;22.00;99.90;;;;;;5090415;28;20040;-66
2022/04/15 12:29:51;;;;;;;5.47;1.73;;;22.80;99.90;;;;;;5084970;28;20620;-66
2022/04/15 12:32:37;;;;;;;3.72;1.60;;;23.00;99.90;;;;;;5075936;28;20076;-66
2022/04/15 12:35:10;;;;;;;6.43;1.92;;;23.00;99.90;;;;;;5085428;28;20042;-65
2022/04/15 12:37:38;;;;;;;4.10;2.35;;;23.40;99.90;;;;;;5093590;28;20105;-66
2022/04/15 12:40:26;;;;;;;3.92;2.10;;;22.90;99.50;;;;;;5079879;28;20456;-66
2022/04/15 12:42:53;;;;;;;3.97;1.80;;;22.60;99.80;;;;;;5090097;28;20097;-66
2022/04/15 12:45:21;;;;;;;3.83;1.98;;;23.50;99.40;;;;;;5092133;28;20071;-65
2022/04/15 12:48:00;;;;;;;3.97;2.03;;;23.80;98.30;;;;;;5091308;28;20066;-65